createdAt,value
2023-04-08T00:01:02.050Z,99914.06
2023-04-08T00:03:31.441Z,99912.75
2023-04-08T00:06:01.123Z,99910.96
2023-04-08T00:08:31.320Z,99914.15
2023-04-08T00:10:59.920Z,99912.14
2023-04-08T00:13:31.469Z,99915.58
2023-04-08T00:16:00.131Z,99919.73
2023-04-08T00:18:29.482Z,99921.62
2023-04-08T00:20:57.805Z,99919.64
2023-04-08T00:23:26.421Z,99919.08
2023-04-08T00:25:54.836Z,99920.67
2023-04-08T00:28:30.152Z,99923.70
2023-04-08T00:30:58.549Z,99926.42
2023-04-08T00:33:27.677Z,99925.53
2023-04-08T00:35:56.083Z,99922.84
2023-04-08T00:38:24.464Z,99926.34
2023-04-08T00:40:53.784Z,99924.05
2023-04-08T00:43:23.271Z,99920.77
2023-04-08T00:45:52.044Z,99920.65
2023-04-08T00:48:20.407Z,99918.77
2023-04-08T00:50:48.775Z,99919.29
2023-04-08T00:53:36.945Z,99920.45
2023-04-08T00:56:05.564Z,99915.81
2023-04-08T00:58:34.562Z,99916.36
2023-04-08T01:01:07.754Z,99910.86
2023-04-08T01:04:01.957Z,99907.34
2023-04-08T01:07:18.178Z,99913.38
2023-04-08T01:09:52.877Z,99916.18
2023-04-08T01:12:29.212Z,99917.84
2023-04-08T01:15:01.766Z,99918.42
2023-04-08T01:17:31.290Z,99922.23
2023-04-08T01:20:01.958Z,99921.24
2023-04-08T01:22:55.125Z,99923.48
2023-04-08T01:25:26.642Z,99925.11
2023-04-08T01:27:57.818Z,99927.75
2023-04-08T01:30:27.478Z,99923.20
2023-04-08T01:35:51.210Z,99927.30
2023-04-08T01:38:21.841Z,99921.84
2023-04-08T01:40:49.010Z,99920.86
2023-04-08T01:43:16.931Z,99922.61
2023-04-08T01:45:44.600Z,99926.83
2023-04-08T01:48:13.009Z,99925.95
2023-04-08T01:50:44.457Z,99922.31
2023-04-08T01:53:13.376Z,99923.23
2023-04-08T01:55:41.659Z,99922.00
2023-04-08T01:58:08.930Z,99926.40
2023-04-08T02:00:37.140Z,99923.02
2023-04-08T02:03:05.444Z,99921.88
2023-04-08T02:05:34.080Z,99923.33
2023-04-08T02:08:00.975Z,99921.77
2023-04-08T02:10:33.247Z,99920.57
2023-04-08T02:13:01.094Z,99917.43
2023-04-08T02:15:33.898Z,99911.38
2023-04-08T02:18:16.638Z,99912.73
2023-04-08T02:20:52.248Z,99913.80
2023-04-08T02:23:32.795Z,99912.59
2023-04-08T02:25:59.730Z,99909.64
2023-04-08T02:28:27.327Z,99908.29
2023-04-08T02:30:55.959Z,99911.28
2023-04-08T02:33:23.948Z,99903.17
2023-04-08T02:35:55.493Z,99906.30
2023-04-08T02:38:29.370Z,99904.20
2023-04-08T02:40:56.803Z,99909.75
2023-04-08T02:43:31.200Z,99910.67
2023-04-08T02:46:03.477Z,99908.36
2023-04-08T02:48:31.346Z,99909.30
2023-04-08T02:50:58.241Z,99914.98
2023-04-08T02:53:25.952Z,99912.08
2023-04-08T02:55:52.950Z,99909.06
2023-04-08T02:58:20.056Z,99910.69
2023-04-08T03:00:48.050Z,99913.60
2023-04-08T03:03:16.670Z,99922.95
2023-04-08T03:05:43.584Z,99923.31
2023-04-08T03:08:10.592Z,99924.63
2023-04-08T03:10:37.834Z,99922.59
2023-04-08T03:13:05.241Z,99917.88
2023-04-08T03:15:32.112Z,99923.20
2023-04-08T03:17:59.332Z,99923.65
2023-04-08T03:20:26.600Z,99930.35
2023-04-08T03:22:54.725Z,99928.59
2023-04-08T03:25:21.645Z,99923.88
2023-04-08T03:27:48.657Z,99923.61
2023-04-08T03:30:15.592Z,99923.59
2023-04-08T03:32:43.155Z,99921.52
2023-04-08T03:35:10.708Z,99923.04
2023-04-08T03:37:37.814Z,99922.87
2023-04-08T03:40:05.802Z,99920.20
2023-04-08T03:42:33.268Z,99919.92
2023-04-08T03:45:00.117Z,99924.11
2023-04-08T03:47:27.041Z,99922.52
2023-04-08T03:49:55.093Z,99927.96
2023-04-08T03:52:22.444Z,99931.18
2023-04-08T03:54:49.390Z,99932.83
2023-04-08T03:57:16.366Z,99934.27
2023-04-08T03:59:43.283Z,99937.02
2023-04-08T04:02:10.535Z,99935.32
2023-04-08T04:04:38.429Z,99938.30
2023-04-08T04:07:05.607Z,99944.05
2023-04-08T04:09:32.378Z,99941.19
2023-04-08T04:11:59.272Z,99940.74
2023-04-08T04:14:27.154Z,99938.30
2023-04-08T04:16:54.294Z,99942.14
2023-04-08T04:19:21.292Z,99944.98
2023-04-08T04:21:50.977Z,99949.10
2023-04-08T04:24:17.749Z,99950.26
2023-04-08T04:26:44.978Z,99949.42
2023-04-08T04:29:11.874Z,99950.10
2023-04-08T04:31:40.331Z,99950.31
2023-04-08T04:34:07.249Z,99950.88
2023-04-08T04:36:35.426Z,99951.09
2023-04-08T04:39:02.450Z,99953.41
2023-04-08T04:41:29.909Z,99954.80
2023-04-08T04:43:56.779Z,99954.55
2023-04-08T04:46:23.813Z,99954.23
2023-04-08T04:48:51.144Z,99956.45
2023-04-08T04:51:18.442Z,99959.66
2023-04-08T04:53:46.281Z,99962.45
2023-04-08T04:56:13.420Z,99963.77
2023-04-08T04:58:41.659Z,99967.63
2023-04-08T05:01:08.998Z,99966.91
2023-04-08T05:03:36.626Z,99968.88
2023-04-08T05:06:05.075Z,99968.70
2023-04-08T05:08:32.529Z,99968.80
2023-04-08T05:11:01.767Z,99966.36
2023-04-08T05:13:38.183Z,99970.17
2023-04-08T05:16:06.565Z,99977.23
2023-04-08T05:18:33.824Z,99974.84
2023-04-08T05:21:04.909Z,99973.58
2023-04-08T05:23:34.604Z,99978.59
2023-04-08T05:26:02.009Z,99980.54
2023-04-08T05:28:28.925Z,99978.70
2023-04-08T05:30:56.214Z,99979.61
2023-04-08T05:33:23.415Z,99973.87
2023-04-08T05:35:52.673Z,99976.41
2023-04-08T05:38:21.812Z,99976.50
2023-04-08T05:40:49.885Z,99982.55
2023-04-08T05:43:17.500Z,99984.45
2023-04-08T05:45:44.426Z,99984.39
2023-04-08T05:48:11.713Z,99982.05
2023-04-08T05:50:38.804Z,99981.48
2023-04-08T05:53:05.916Z,99983.48
2023-04-08T05:55:33.259Z,99985.06
2023-04-08T05:58:00.974Z,99987.36
2023-04-08T06:00:28.586Z,99987.09
2023-04-08T06:03:17.458Z,99993.45
2023-04-08T06:05:46.850Z,99989.05
2023-04-08T06:08:14.333Z,99988.77
2023-04-08T06:10:49.861Z,99992.49
2023-04-08T06:13:19.746Z,99994.09
2023-04-08T06:15:48.386Z,99994.36
2023-04-08T06:18:20.629Z,99990.60
2023-04-08T06:20:47.621Z,99992.02
2023-04-08T06:23:14.933Z,99993.73
2023-04-08T06:25:42.523Z,99995.56
2023-04-08T06:28:09.747Z,99990.77
2023-04-08T06:30:38.081Z,99997.77
2023-04-08T06:33:07.050Z,99998.39
2023-04-08T06:35:34.086Z,100003.55
2023-04-08T06:38:01.184Z,100004.60
2023-04-08T06:40:28.237Z,100005.20
2023-04-08T06:42:55.967Z,100001.23
2023-04-08T06:45:33.518Z,99998.46
2023-04-08T06:48:00.756Z,99994.61
2023-04-08T06:50:27.868Z,100000.75
2023-04-08T06:52:55.013Z,100002.30
2023-04-08T06:55:21.989Z,100007.64
2023-04-08T06:57:53.472Z,100006.83
2023-04-08T07:00:20.780Z,100005.23
2023-04-08T07:03:07.938Z,100008.98
2023-04-08T07:05:36.430Z,100007.51
2023-04-08T07:08:03.224Z,100012.56
2023-04-08T07:10:31.649Z,100009.16
2023-04-08T07:12:59.321Z,100014.27
2023-04-08T07:15:26.808Z,100012.63
2023-04-08T07:17:59.357Z,100015.77
2023-04-08T07:20:26.424Z,100016.94
2023-04-08T07:22:57.955Z,100022.21
2023-04-08T07:25:25.112Z,100023.41
2023-04-08T07:27:52.606Z,100024.49
2023-04-08T07:30:20.150Z,100027.54
2023-04-08T07:32:47.237Z,100024.85
2023-04-08T07:35:23.790Z,100023.24
2023-04-08T07:37:52.478Z,100026.30
2023-04-08T07:40:19.553Z,100027.95
2023-04-08T07:42:47.512Z,100034.09
2023-04-08T07:45:14.919Z,100032.85
2023-04-08T07:47:42.358Z,100029.29
2023-04-08T07:50:10.139Z,100029.97
2023-04-08T07:52:37.514Z,100027.07
2023-04-08T07:55:05.372Z,100026.10
2023-04-08T07:57:32.226Z,100023.95
2023-04-08T07:59:59.172Z,100026.73
2023-04-08T08:02:26.265Z,100026.77
2023-04-08T08:04:53.695Z,100026.31
2023-04-08T08:07:20.867Z,100021.11
2023-04-08T08:09:47.914Z,100022.52
2023-04-08T08:12:14.987Z,100022.34
2023-04-08T08:14:44.170Z,100019.17
2023-04-08T08:17:12.316Z,100017.73
2023-04-08T08:19:39.572Z,100018.71
2023-04-08T08:22:11.559Z,100017.92
2023-04-08T08:24:38.910Z,100015.24
2023-04-08T08:27:06.337Z,100018.52
2023-04-08T08:29:33.500Z,100012.58
2023-04-08T08:32:00.837Z,100016.23
2023-04-08T08:34:27.842Z,100016.48
2023-04-08T08:36:55.444Z,100009.70
2023-04-08T08:39:22.556Z,100013.29
2023-04-08T08:41:51.182Z,100014.34
2023-04-08T08:44:18.232Z,100014.22
2023-04-08T08:46:45.370Z,100012.55
2023-04-08T08:49:12.640Z,100013.50
2023-04-08T08:51:45.075Z,100010.80
2023-04-08T08:54:13.062Z,100014.00
2023-04-08T08:56:40.172Z,100017.09
2023-04-08T08:59:07.982Z,100014.45
2023-04-08T09:01:38.364Z,100014.45
2023-04-08T09:04:10.279Z,100013.27
2023-04-08T09:06:39.183Z,100016.34
2023-04-08T09:09:09.697Z,100012.91
2023-04-08T09:11:43.957Z,100011.84
2023-04-08T09:14:21.670Z,100009.91
2023-04-08T09:16:49.289Z,100006.59
2023-04-08T09:19:19.358Z,100009.82
2023-04-08T09:22:03.649Z,100009.77
2023-04-08T09:24:31.387Z,100010.17
2023-04-08T09:27:06.833Z,100010.61
2023-04-08T09:29:36.446Z,100008.94
2023-04-08T09:32:05.660Z,100011.97
2023-04-08T09:34:33.784Z,100011.72
2023-04-08T09:37:01.459Z,100013.83
2023-04-08T09:39:30.388Z,100014.27
2023-04-08T09:41:58.576Z,100017.48
2023-04-08T09:44:26.127Z,100017.84
2023-04-08T09:46:59.962Z,100021.14
2023-04-08T09:49:27.708Z,100016.61
2023-04-08T09:52:14.082Z,100021.29
2023-04-08T09:54:51.754Z,100020.77
2023-04-08T09:57:41.491Z,100020.33
2023-04-08T10:00:14.992Z,100024.90
2023-04-08T10:02:59.283Z,100024.91
2023-04-08T10:05:26.793Z,100025.58
2023-04-08T10:07:55.796Z,100023.82
2023-04-08T10:10:23.466Z,100023.33
2023-04-08T10:12:51.852Z,100025.23
2023-04-08T10:15:30.110Z,100030.02
2023-04-08T10:18:06.493Z,100024.58
2023-04-08T10:20:34.528Z,100019.92
2023-04-08T10:23:03.105Z,100019.70
2023-04-08T10:25:37.504Z,100019.89
2023-04-08T10:28:10.315Z,100023.20
2023-04-08T10:30:37.877Z,100021.20
2023-04-08T10:33:34.326Z,100019.46
2023-04-08T10:36:14.726Z,100021.86
2023-04-08T10:38:42.109Z,100020.94
2023-04-08T10:41:10.517Z,100017.66
2023-04-08T10:43:37.770Z,100024.54
2023-04-08T10:46:10.262Z,100025.11
2023-04-08T10:48:37.553Z,100021.27
2023-04-08T10:51:06.607Z,100019.00
2023-04-08T10:53:37.334Z,100013.89
2023-04-08T10:56:17.314Z,100014.61
2023-04-08T10:58:49.349Z,100010.38
2023-04-08T11:01:19.385Z,100008.09
2023-04-08T11:03:47.279Z,100004.10
2023-04-08T11:06:15.248Z,100001.95
2023-04-08T11:08:44.092Z,99993.96
2023-04-08T11:11:11.747Z,99988.51
2023-04-08T11:13:52.942Z,99984.77
2023-04-08T11:16:22.015Z,99984.25
2023-04-08T11:19:12.625Z,99983.21
2023-04-08T11:21:46.412Z,99982.27
2023-04-08T11:24:16.205Z,99984.72
2023-04-08T11:26:47.605Z,99983.15
2023-04-08T11:29:15.392Z,99985.15
2023-04-08T11:31:42.891Z,99983.17
2023-04-08T11:34:11.828Z,99982.43
2023-04-08T11:36:42.019Z,99984.34
2023-04-08T11:39:09.418Z,99983.36
2023-04-08T11:41:41.229Z,99978.84
2023-04-08T11:44:08.149Z,99973.60
2023-04-08T11:46:37.280Z,99969.30
2023-04-08T11:49:06.063Z,99967.98
2023-04-08T11:51:54.770Z,99961.65
2023-04-08T11:54:32.316Z,99954.21
2023-04-08T11:56:59.873Z,99957.16
2023-04-08T11:59:29.761Z,99958.52
2023-04-08T12:01:57.222Z,99959.61
2023-04-08T12:04:24.421Z,99954.33
2023-04-08T12:06:53.172Z,99957.37
2023-04-08T12:09:20.163Z,99955.19
2023-04-08T12:11:50.209Z,99948.71
2023-04-08T12:14:23.812Z,99946.38
2023-04-08T12:16:52.142Z,99945.15
2023-04-08T12:19:23.698Z,99942.02
2023-04-08T12:21:55.382Z,99939.77
2023-04-08T12:24:23.172Z,99941.77
2023-04-08T12:26:59.561Z,99936.38
2023-04-08T12:29:30.635Z,99940.15
2023-04-08T12:31:58.240Z,99938.29
2023-04-08T12:34:28.216Z,99932.50
2023-04-08T12:36:58.296Z,99931.05
2023-04-08T12:39:26.395Z,99933.79
2023-04-08T12:41:53.907Z,99933.79
2023-04-08T12:44:21.105Z,99929.63
2023-04-08T12:46:48.839Z,99934.02
2023-04-08T12:49:15.845Z,99934.22
2023-04-08T12:51:46.738Z,99931.63
2023-04-08T12:54:14.350Z,99931.27
2023-04-08T12:56:42.778Z,99922.87
2023-04-08T12:59:11.214Z,99924.64
2023-04-08T13:01:38.724Z,99919.95
2023-04-08T13:04:06.151Z,99918.05
2023-04-08T13:06:33.540Z,99916.09
2023-04-08T13:09:00.821Z,99918.89
2023-04-08T13:11:29.548Z,99916.54
2023-04-08T13:13:56.739Z,99912.11
2023-04-08T13:16:24.187Z,99909.80
2023-04-08T13:18:52.426Z,99905.61
2023-04-08T13:21:19.759Z,99903.35
2023-04-08T13:23:46.654Z,99908.45
2023-04-08T13:26:13.836Z,99907.11
2023-04-08T13:28:55.801Z,99912.44
2023-04-08T13:31:26.223Z,99916.94
2023-04-08T13:33:55.231Z,99918.96
2023-04-08T13:36:24.513Z,99922.60
2023-04-08T13:38:51.876Z,99922.94
2023-04-08T13:41:20.576Z,99930.94
2023-04-08T13:43:48.162Z,99924.70
2023-04-08T13:46:15.256Z,99920.19
2023-04-08T13:48:44.164Z,99917.22
2023-04-08T13:51:58.055Z,99938.15
2023-04-08T13:54:32.962Z,99937.38
2023-04-08T13:57:02.773Z,99935.77
2023-04-08T13:59:31.668Z,99932.21
2023-04-08T14:02:02.386Z,99943.84
2023-04-08T14:04:31.809Z,99951.79
2023-04-08T14:07:01.138Z,99953.49
2023-04-08T14:09:29.681Z,99954.24
2023-04-08T14:11:59.461Z,99950.46
2023-04-08T14:14:28.043Z,99947.89
2023-04-08T14:17:00.952Z,99934.21
2023-04-08T14:19:29.547Z,99939.20
2023-04-08T14:22:03.780Z,99939.95
2023-04-08T14:24:32.734Z,99947.05
2023-04-08T14:27:01.142Z,99954.20
2023-04-08T14:29:30.635Z,99954.76
2023-04-08T14:31:59.039Z,99961.11
2023-04-08T14:34:27.537Z,99957.52
2023-04-08T14:36:56.247Z,99963.27
2023-04-08T14:39:25.519Z,99962.98
2023-04-08T14:41:57.587Z,99955.89
2023-04-08T14:44:26.058Z,99966.75
2023-04-08T14:46:54.417Z,99966.70
2023-04-08T14:49:22.932Z,99968.97
2023-04-08T14:51:53.208Z,99971.52
2023-04-08T14:54:21.858Z,99968.50
2023-04-08T14:56:50.551Z,99965.37
2023-04-08T14:59:19.144Z,99970.58
2023-04-08T15:01:48.023Z,99975.18
2023-04-08T15:04:16.629Z,99980.39
2023-04-08T15:06:46.042Z,99985.08
2023-04-08T15:09:14.387Z,99980.70
2023-04-08T15:11:42.778Z,99982.23
2023-04-08T15:14:15.768Z,99987.58
2023-04-08T15:16:44.197Z,99986.30
2023-04-08T15:19:12.659Z,99987.18
2023-04-08T15:21:42.169Z,99988.02
2023-04-08T15:24:10.601Z,99986.16
2023-04-08T15:26:38.904Z,99988.02
2023-04-08T15:29:07.381Z,99987.42
2023-04-08T15:31:36.171Z,99982.31
2023-04-08T15:34:04.871Z,99981.77
2023-04-08T15:36:36.114Z,99981.47
2023-04-08T15:39:04.465Z,99985.80
2023-04-08T15:41:32.923Z,99983.27
2023-04-08T15:44:02.050Z,99985.95
2023-04-08T15:46:30.701Z,99984.58
2023-04-08T15:49:00.224Z,99990.84
2023-04-08T15:51:29.857Z,99988.45
2023-04-08T15:53:59.058Z,99991.34
2023-04-08T15:56:29.771Z,99996.41
2023-04-08T15:59:01.469Z,99997.53
2023-04-08T16:01:30.136Z,99994.08
2023-04-08T16:04:01.282Z,99994.80
2023-04-08T16:06:30.064Z,99998.36
2023-04-08T16:08:58.347Z,99995.20
2023-04-08T16:11:27.866Z,100000.45
2023-04-08T16:13:56.158Z,99998.27
2023-04-08T16:16:24.974Z,100000.07
2023-04-08T16:18:55.838Z,99998.08
2023-04-08T16:21:24.396Z,99994.09
2023-04-08T16:23:53.309Z,99992.60
2023-04-08T16:26:22.580Z,99995.48
2023-04-08T16:28:52.049Z,100003.02
2023-04-08T16:31:20.897Z,100013.48
2023-04-08T16:33:49.859Z,100017.54
2023-04-08T16:36:20.386Z,100019.38
2023-04-08T16:38:48.761Z,100025.27
2023-04-08T16:41:17.140Z,100023.94
2023-04-08T16:43:45.385Z,100030.52
2023-04-08T16:46:16.266Z,100033.48
2023-04-08T16:48:45.096Z,100037.65
2023-04-08T16:51:13.681Z,100036.64
2023-04-08T16:53:42.738Z,100037.92
2023-04-08T16:56:16.623Z,100041.17
2023-04-08T16:58:46.099Z,100037.19
2023-04-08T17:01:18.788Z,100041.16
2023-04-08T17:03:48.815Z,100042.45
2023-04-08T17:06:17.976Z,100043.06
2023-04-08T17:08:49.369Z,100045.05
2023-04-08T17:11:18.582Z,100047.15
2023-04-08T17:13:47.143Z,100053.71
2023-04-08T17:16:17.567Z,100052.69
2023-04-08T17:18:46.983Z,100053.35
2023-04-08T17:21:15.821Z,100053.69
2023-04-08T17:23:52.534Z,100054.60
2023-04-08T17:26:26.523Z,100060.66
2023-04-08T17:28:55.017Z,100065.36
2023-04-08T17:31:24.024Z,100069.31
2023-04-08T17:33:53.135Z,100073.40
2023-04-08T17:36:21.452Z,100076.16
2023-04-08T17:38:51.532Z,100078.34
2023-04-08T17:41:38.371Z,100080.85
2023-04-08T17:44:11.950Z,100080.14
2023-04-08T17:46:41.659Z,100082.33
2023-04-08T17:49:14.432Z,100085.88
2023-04-08T17:51:43.237Z,100084.70
2023-04-08T17:54:11.875Z,100090.11
2023-04-08T17:56:41.824Z,100091.12
2023-04-08T17:59:11.367Z,100093.71
2023-04-08T18:01:41.470Z,100099.23
2023-04-08T18:04:12.886Z,100101.04
2023-04-08T18:06:42.114Z,100107.29
2023-04-08T18:09:13.138Z,100106.48
2023-04-08T18:11:42.072Z,100106.02
2023-04-08T18:14:10.531Z,100104.34
2023-04-08T18:16:44.837Z,100112.73
2023-04-08T18:19:16.083Z,100116.52
2023-04-08T18:21:44.717Z,100115.31
2023-04-08T18:24:13.840Z,100120.55
2023-04-08T18:26:43.871Z,100118.42
2023-04-08T18:29:12.632Z,100119.66
2023-04-08T18:31:41.009Z,100120.72
2023-04-08T18:34:09.363Z,100119.85
2023-04-08T18:36:38.335Z,100115.52
2023-04-08T18:39:06.866Z,100121.59
2023-04-08T18:41:37.506Z,100120.20
2023-04-08T18:44:06.419Z,100120.52
2023-04-08T18:46:35.756Z,100118.96
2023-04-08T18:49:04.719Z,100120.75
2023-04-08T18:51:33.697Z,100119.53
2023-04-08T18:54:02.150Z,100117.23
2023-04-08T18:56:30.743Z,100118.80
2023-04-08T18:59:00.162Z,100117.49
2023-04-08T19:01:31.387Z,100113.99
2023-04-08T19:04:00.148Z,100114.40
2023-04-08T19:06:28.767Z,100113.15
2023-04-08T19:08:57.035Z,100119.15
2023-04-08T19:11:29.014Z,100120.00
2023-04-08T19:13:57.899Z,100120.09
2023-04-08T19:16:33.865Z,100116.69
2023-04-08T19:19:03.754Z,100113.45
2023-04-08T19:21:32.949Z,100111.58
2023-04-08T19:24:01.334Z,100115.47
2023-04-08T19:26:29.948Z,100111.41
2023-04-08T19:28:58.340Z,100110.23
2023-04-08T19:31:27.537Z,100107.64
2023-04-08T19:33:56.049Z,100109.86
2023-04-08T19:36:24.535Z,100109.25
2023-04-08T19:38:52.967Z,100108.20
2023-04-08T19:41:21.705Z,100106.23
2023-04-08T19:43:50.784Z,100105.92
2023-04-08T19:46:20.070Z,100103.36
2023-04-08T19:48:49.769Z,100103.10
2023-04-08T19:51:20.458Z,100100.98
2023-04-08T19:53:51.327Z,100095.88
2023-04-08T19:56:20.113Z,100091.15
2023-04-08T19:58:48.721Z,100088.56
2023-04-08T20:01:24.121Z,100089.23
2023-04-08T20:03:53.920Z,100090.83
2023-04-08T20:06:23.291Z,100087.40
2023-04-08T20:08:53.396Z,100088.62
2023-04-08T20:11:22.609Z,100085.48
2023-04-08T20:13:51.709Z,100084.89
2023-04-08T20:16:20.227Z,100084.19
2023-04-08T20:18:49.314Z,100085.18
2023-04-08T20:21:26.916Z,100088.09
2023-04-08T20:23:55.858Z,100086.11
2023-04-08T20:26:24.210Z,100085.89
2023-04-08T20:28:56.331Z,100088.81
2023-04-08T20:31:26.940Z,100088.15
2023-04-08T20:33:59.340Z,100086.55
2023-04-08T20:36:31.101Z,100084.57
2023-04-08T20:39:00.276Z,100085.41
2023-04-08T20:41:28.742Z,100086.51
2023-04-08T20:43:57.167Z,100089.84
2023-04-08T20:46:29.970Z,100089.02
2023-04-08T20:48:58.519Z,100088.18
2023-04-08T20:51:27.481Z,100086.10
2023-04-08T20:53:56.267Z,100086.12
2023-04-08T20:56:26.656Z,100083.20
2023-04-08T20:59:01.374Z,100085.10
2023-04-08T21:01:30.173Z,100085.31
2023-04-08T21:03:58.601Z,100083.70
2023-04-08T21:06:28.057Z,100082.67
2023-04-08T21:08:58.735Z,100081.11
2023-04-08T21:11:28.841Z,100086.23
2023-04-08T21:13:57.976Z,100085.42
2023-04-08T21:16:29.246Z,100082.45
2023-04-08T21:19:01.495Z,100078.92
2023-04-08T21:21:32.360Z,100084.66
2023-04-08T21:24:00.861Z,100084.29
2023-04-08T21:26:29.854Z,100084.59
2023-04-08T21:28:58.543Z,100087.75
2023-04-08T21:31:27.567Z,100088.08
2023-04-08T21:33:58.706Z,100087.52
2023-04-08T21:36:28.159Z,100082.86
2023-04-08T21:38:57.643Z,100078.64
2023-04-08T21:41:28.997Z,100078.12
2023-04-08T21:43:59.429Z,100078.45
2023-04-08T21:46:28.008Z,100081.70
2023-04-08T21:48:56.555Z,100083.03
2023-04-08T21:51:25.098Z,100083.30
2023-04-08T21:53:53.813Z,100081.42
2023-04-08T21:56:22.529Z,100085.02
2023-04-08T21:58:51.505Z,100085.02
2023-04-08T22:01:20.803Z,100089.40
2023-04-08T22:03:52.537Z,100089.74
2023-04-08T22:06:31.678Z,100085.23
2023-04-08T22:09:01.188Z,100088.69
2023-04-08T22:11:30.968Z,100093.52
2023-04-08T22:13:59.579Z,100091.73
2023-04-08T22:16:28.444Z,100088.20
2023-04-08T22:18:57.320Z,100085.27
2023-04-08T22:21:30.565Z,100084.18
2023-04-08T22:23:59.225Z,100083.46
2023-04-08T22:26:28.195Z,100086.52
2023-04-08T22:29:00.579Z,100086.76
2023-04-08T22:31:30.491Z,100085.45
2023-04-08T22:34:00.392Z,100085.40
2023-04-08T22:36:28.990Z,100089.58
2023-04-08T22:38:58.016Z,100089.10
2023-04-08T22:41:26.698Z,100090.39
2023-04-08T22:43:55.171Z,100090.10
2023-04-08T22:46:24.757Z,100084.91
2023-04-08T22:48:53.857Z,100083.52
2023-04-08T22:51:22.764Z,100088.44
2023-04-08T22:53:51.194Z,100084.91
2023-04-08T22:56:19.493Z,100080.00
2023-04-08T22:58:50.802Z,100082.29
2023-04-08T23:01:22.552Z,100080.50
2023-04-08T23:03:52.271Z,100082.48
2023-04-08T23:06:20.547Z,100081.59
2023-04-08T23:08:51.616Z,100081.61
2023-04-08T23:11:20.221Z,100080.66
2023-04-08T23:18:43.378Z,100077.34
2023-04-08T23:21:20.557Z,100075.16
2023-04-08T23:23:49.680Z,100078.65
2023-04-08T23:26:21.464Z,100070.08
2023-04-08T23:28:55.277Z,100067.75
2023-04-08T23:31:24.038Z,100067.13
2023-04-08T23:33:53.478Z,100066.14
2023-04-08T23:36:23.446Z,100068.94
2023-04-08T23:38:51.855Z,100066.77
2023-04-08T23:41:20.796Z,100067.27
2023-04-08T23:43:55.367Z,100068.18
2023-04-08T23:46:23.752Z,100069.66
2023-04-08T23:48:57.938Z,100068.61
2023-04-08T23:51:27.998Z,100071.08
2023-04-08T23:53:56.802Z,100069.03
2023-04-08T23:56:26.105Z,100067.73
2023-04-08T23:58:54.939Z,100068.49
